createdAt,value
2022-08-09T00:00:00.687Z,14.80
2022-08-09T00:02:29.101Z,14.80
2022-08-09T00:05:02.992Z,14.70
2022-08-09T00:07:44.628Z,14.70
2022-08-09T00:10:18.053Z,14.60
2022-08-09T00:12:53.039Z,14.60
2022-08-09T00:15:35.455Z,14.50
2022-08-09T00:18:11.149Z,14.50
2022-08-09T00:20:42.539Z,14.50
2022-08-09T00:23:56.724Z,14.40
2022-08-09T00:26:07.244Z,14.40
2022-08-09T00:28:35.043Z,14.60
2022-08-09T00:31:30.765Z,14.60
2022-08-09T00:33:52.226Z,14.50
2022-08-09T00:36:29.495Z,14.50
2022-08-09T00:38:58.585Z,14.50
2022-08-09T00:44:10.785Z,14.50
2022-08-09T00:44:25.576Z,14.40
2022-08-09T00:47:04.759Z,14.40
2022-08-09T00:49:36.846Z,14.30
2022-08-09T00:52:06.215Z,14.40
2022-08-09T00:54:45.380Z,14.30
2022-08-09T00:57:12.837Z,14.20
2022-08-09T00:59:46.426Z,14.30
2022-08-09T01:02:22.145Z,14.20
2022-08-09T01:05:14.615Z,14.10
2022-08-09T01:08:00.639Z,14.10
2022-08-09T01:10:51.144Z,14.00
2022-08-09T01:13:42.013Z,13.90
2022-08-09T01:16:31.915Z,14.00
2022-08-09T01:19:06.658Z,13.80
2022-08-09T01:22:19.813Z,14.20
2022-08-09T01:25:22.006Z,13.80
2022-08-09T01:27:53.242Z,13.70
2022-08-09T01:30:33.512Z,13.70
2022-08-09T01:33:09.960Z,13.70
2022-08-09T01:35:51.952Z,13.50
2022-08-09T01:38:26.066Z,13.50
2022-08-09T01:41:05.577Z,13.50
2022-08-09T01:43:42.122Z,13.50
2022-08-09T01:46:27.382Z,14.30
2022-08-09T01:49:09.435Z,13.40
2022-08-09T01:51:42.746Z,13.40
2022-08-09T01:54:12.163Z,13.30
2022-08-09T01:56:42.625Z,13.40
2022-08-09T01:59:19.111Z,13.30
2022-08-09T02:01:58.753Z,13.30
2022-08-09T02:04:29.630Z,13.20
2022-08-09T02:08:36.108Z,13.90
2022-08-09T02:10:15.356Z,13.10
2022-08-09T02:12:46.862Z,13.10
2022-08-09T02:15:19.260Z,13.00
2022-08-09T02:18:01.005Z,13.10
2022-08-09T02:20:43.836Z,13.00
2022-08-09T02:23:13.634Z,13.40
2022-08-09T02:25:52.496Z,13.20
2022-08-09T02:28:25.194Z,13.40
2022-08-09T02:31:00.282Z,13.10
2022-08-09T02:33:38.178Z,12.80
2022-08-09T02:36:26.333Z,13.10
2022-08-09T02:38:55.678Z,13.00
2022-08-09T02:41:30.634Z,12.70
2022-08-09T02:44:06.626Z,12.90
2022-08-09T02:46:43.586Z,12.70
2022-08-09T02:49:14.652Z,12.70
2022-08-09T02:51:44.653Z,12.60
2022-08-09T02:54:14.575Z,12.60
2022-08-09T02:56:51.687Z,12.60
2022-08-09T02:59:25.997Z,12.60
2022-08-09T03:02:07.064Z,12.50
2022-08-09T03:04:40.870Z,12.50
2022-08-09T03:07:12.155Z,12.40
2022-08-09T03:09:54.418Z,12.40
2022-08-09T03:12:25.744Z,12.50
2022-08-09T03:14:53.812Z,12.40
2022-08-09T03:17:26.687Z,12.50
2022-08-09T03:20:03.056Z,12.50
2022-08-09T03:22:41.909Z,12.40
2022-08-09T03:25:56.933Z,12.40
2022-08-09T03:28:01.034Z,12.30
2022-08-09T03:30:32.937Z,12.30
2022-08-09T03:33:12.962Z,12.10
2022-08-09T03:36:15.888Z,12.30
2022-08-09T03:38:42.430Z,12.20
2022-08-09T03:41:16.371Z,12.60
2022-08-09T03:44:03.099Z,12.10
2022-08-09T03:46:34.391Z,12.00
2022-08-09T03:49:04.260Z,12.00
2022-08-09T03:51:54.984Z,12.30
2022-08-09T03:54:29.171Z,12.10
2022-08-09T03:56:59.367Z,12.90
2022-08-09T03:59:43.156Z,12.00
2022-08-09T04:02:14.380Z,12.00
2022-08-09T04:04:45.631Z,12.00
2022-08-09T04:07:14.525Z,12.10
2022-08-09T04:09:49.888Z,12.00
2022-08-09T04:12:35.776Z,12.20
2022-08-09T04:15:11.173Z,11.90
2022-08-09T04:17:42.453Z,11.80
2022-08-09T04:20:13.167Z,11.80
2022-08-09T04:22:44.465Z,11.80
2022-08-09T04:25:12.944Z,11.80
2022-08-09T04:27:49.160Z,13.40
2022-08-09T04:30:23.502Z,12.60
2022-08-09T04:32:54.227Z,11.80
2022-08-09T04:35:21.747Z,11.80
2022-08-09T04:37:50.037Z,11.80
2022-08-09T04:40:19.220Z,12.30
2022-08-09T04:42:55.415Z,13.50
2022-08-09T04:45:23.919Z,13.00
2022-08-09T04:48:01.153Z,12.10
2022-08-09T04:50:32.010Z,12.20
2022-08-09T04:53:13.024Z,12.10
2022-08-09T04:55:58.057Z,12.10
2022-08-09T04:58:31.669Z,12.20
2022-08-09T05:01:01.423Z,12.30
2022-08-09T05:03:40.013Z,12.30
2022-08-09T05:06:18.187Z,12.50
2022-08-09T05:08:53.776Z,13.60
2022-08-09T05:11:35.260Z,12.70
2022-08-09T05:14:06.222Z,12.80
2022-08-09T05:16:58.118Z,13.60
2022-08-09T05:19:26.105Z,13.00
2022-08-09T05:21:55.644Z,13.20
2022-08-09T05:24:24.584Z,13.70
2022-08-09T05:26:53.013Z,13.40
2022-08-09T05:29:21.497Z,14.40
2022-08-09T05:31:57.547Z,13.60
2022-08-09T05:34:30.773Z,13.70
2022-08-09T05:37:06.808Z,13.80
2022-08-09T05:39:43.223Z,14.00
2022-08-09T05:42:17.875Z,14.10
2022-08-09T05:44:53.341Z,14.20
2022-08-09T05:47:22.934Z,14.30
2022-08-09T05:50:29.897Z,14.40
2022-08-09T05:52:43.318Z,14.50
2022-08-09T05:55:18.208Z,14.60
2022-08-09T05:57:56.730Z,14.60
2022-08-09T06:00:30.214Z,14.80
2022-08-09T06:03:01.065Z,14.90
2022-08-09T06:05:54.537Z,15.00
2022-08-09T06:08:19.473Z,15.40
2022-08-09T06:10:56.950Z,15.30
2022-08-09T06:13:25.995Z,15.40
2022-08-09T06:15:55.883Z,15.40
2022-08-09T06:18:24.256Z,15.60
2022-08-09T06:20:57.870Z,15.70
2022-08-09T06:23:57.433Z,15.80
2022-08-09T06:26:21.265Z,15.70
2022-08-09T06:29:00.944Z,16.00
2022-08-09T06:31:40.008Z,16.10
2022-08-09T06:34:22.427Z,16.30
2022-08-09T06:36:57.347Z,16.40
2022-08-09T06:39:48.316Z,16.40
2022-08-09T06:42:16.085Z,16.60
2022-08-09T06:44:53.976Z,16.70
2022-08-09T06:47:21.191Z,16.80
2022-08-09T06:50:13.549Z,16.90
2022-08-09T06:52:36.008Z,17.00
2022-08-09T06:55:10.223Z,17.10
2022-08-09T06:58:02.101Z,17.20
2022-08-09T07:00:52.112Z,17.50
2022-08-09T07:03:14.819Z,17.60
2022-08-09T07:05:41.815Z,18.00
2022-08-09T07:08:25.611Z,17.80
2022-08-09T07:10:57.553Z,17.80
2022-08-09T07:13:28.117Z,18.10
2022-08-09T07:16:41.998Z,18.10
2022-08-09T07:18:44.579Z,18.30
2022-08-09T07:21:14.710Z,18.50
2022-08-09T07:23:46.642Z,18.50
2022-08-09T07:26:23.830Z,18.70
2022-08-09T07:29:12.024Z,18.80
2022-08-09T07:31:38.578Z,19.00
2022-08-09T07:34:19.424Z,19.10
2022-08-09T07:36:50.814Z,19.10
2022-08-09T07:39:41.654Z,19.30
2022-08-09T07:42:08.501Z,19.40
2022-08-09T07:44:53.328Z,19.60
2022-08-09T07:47:23.177Z,19.80
2022-08-09T07:50:05.159Z,19.90
2022-08-09T07:52:35.945Z,20.00
2022-08-09T07:55:03.972Z,20.20
2022-08-09T07:57:36.412Z,20.40
2022-08-09T08:00:09.019Z,20.50
2022-08-09T08:02:43.074Z,20.60
2022-08-09T08:05:18.924Z,20.70
2022-08-09T08:08:44.516Z,21.10
2022-08-09T08:10:34.308Z,21.00
2022-08-09T08:13:03.853Z,21.10
2022-08-09T08:15:35.583Z,21.30
2022-08-09T08:18:04.881Z,21.40
2022-08-09T08:20:33.371Z,21.50
2022-08-09T08:23:16.763Z,21.60
2022-08-09T08:25:46.117Z,21.80
2022-08-09T08:28:18.181Z,22.00
2022-08-09T08:30:52.889Z,22.10
2022-08-09T08:33:23.755Z,22.10
2022-08-09T08:35:58.213Z,22.20
2022-08-09T08:38:28.072Z,22.30
2022-08-09T08:40:56.517Z,22.50
2022-08-09T08:43:24.348Z,22.50
2022-08-09T08:46:32.405Z,22.60
2022-08-09T08:48:53.512Z,22.60
2022-08-09T08:51:25.055Z,22.80
2022-08-09T08:54:02.999Z,23.00
2022-08-09T08:56:32.831Z,23.10
2022-08-09T08:59:02.697Z,23.10
2022-08-09T09:01:53.068Z,23.20
2022-08-09T09:04:29.989Z,23.50
2022-08-09T09:07:07.987Z,23.60
2022-08-09T09:10:01.818Z,23.70
2022-08-09T09:12:29.168Z,24.50
2022-08-09T09:14:59.395Z,24.20
2022-08-09T09:17:48.109Z,24.50
2022-08-09T09:20:15.546Z,24.50
2022-08-09T09:23:01.748Z,24.50
2022-08-09T09:26:01.627Z,24.70
2022-08-09T09:29:01.899Z,24.90
2022-08-09T09:32:04.150Z,25.30
2022-08-09T09:34:15.313Z,25.70
2022-08-09T09:36:53.176Z,26.00
2022-08-09T09:39:55.164Z,26.20
2022-08-09T09:42:25.420Z,26.40
2022-08-09T09:45:05.971Z,26.60
2022-08-09T09:47:47.588Z,26.80
2022-08-09T09:50:17.190Z,27.00
2022-08-09T09:52:56.262Z,27.10
2022-08-09T09:55:31.947Z,27.30
2022-08-09T09:58:15.891Z,27.50
2022-08-09T10:00:53.789Z,27.60
2022-08-09T10:03:42.968Z,27.80
2022-08-09T10:06:12.452Z,28.20
2022-08-09T10:08:54.815Z,28.50
2022-08-09T10:12:11.741Z,28.70
2022-08-09T10:14:30.529Z,28.90
2022-08-09T10:17:40.203Z,29.00
2022-08-09T10:19:57.267Z,29.10
2022-08-09T10:22:33.500Z,29.20
2022-08-09T10:25:11.064Z,29.50
2022-08-09T10:27:57.248Z,29.90
2022-08-09T10:34:08.869Z,30.30
2022-08-09T10:36:04.774Z,30.50
2022-08-09T10:38:33.849Z,30.90
2022-08-09T10:41:20.409Z,30.90
2022-08-09T10:43:59.597Z,31.00
2022-08-09T10:47:02.986Z,31.20
2022-08-09T10:49:51.866Z,31.40
2022-08-09T10:52:50.062Z,31.60
2022-08-09T10:55:35.857Z,31.90
2022-08-09T10:58:35.077Z,32.00
2022-08-09T11:03:02.060Z,32.20
2022-08-09T11:04:30.922Z,32.50
2022-08-09T11:06:59.737Z,32.50
2022-08-09T11:09:41.385Z,32.60
2022-08-09T11:12:21.621Z,32.60
2022-08-09T11:14:56.057Z,32.80
2022-08-09T11:17:27.273Z,33.00
2022-08-09T11:20:11.022Z,33.20
2022-08-09T11:22:47.310Z,33.30
2022-08-09T11:25:44.817Z,33.60
2022-08-09T11:28:38.908Z,33.90
2022-08-09T11:31:49.366Z,34.10
2022-08-09T11:34:28.285Z,34.40
2022-08-09T11:36:57.314Z,34.70
2022-08-09T11:39:24.920Z,34.80
2022-08-09T11:41:54.665Z,34.80
2022-08-09T11:44:45.158Z,34.90
2022-08-09T11:47:14.443Z,34.90
2022-08-09T11:50:54.359Z,35.10
2022-08-09T11:53:28.063Z,35.20
2022-08-09T11:56:02.116Z,35.30
2022-08-09T11:58:33.604Z,35.40
2022-08-09T12:01:15.552Z,35.20
2022-08-09T12:04:23.631Z,35.20
2022-08-09T12:06:56.417Z,35.30
2022-08-09T12:09:26.966Z,35.20
2022-08-09T12:12:12.963Z,35.10
2022-08-09T12:15:04.085Z,35.20
2022-08-09T12:17:44.378Z,35.30
2022-08-09T12:20:22.399Z,35.40
2022-08-09T12:22:56.960Z,35.30
2022-08-09T12:25:31.896Z,35.40
2022-08-09T12:28:58.297Z,35.50
2022-08-09T12:31:02.956Z,35.60
2022-08-09T12:33:58.573Z,35.40
2022-08-09T12:36:32.001Z,35.00
2022-08-09T12:39:00.922Z,35.00
2022-08-09T12:41:38.899Z,35.10
2022-08-09T12:44:10.130Z,35.30
2022-08-09T12:46:49.019Z,35.30
2022-08-09T12:49:18.404Z,35.30
2022-08-09T12:52:02.304Z,35.40
2022-08-09T12:56:11.111Z,35.30
2022-08-09T12:57:42.044Z,35.30
2022-08-09T13:00:14.709Z,35.00
2022-08-09T13:03:08.569Z,35.20
2022-08-09T13:06:13.513Z,35.30
2022-08-09T13:08:40.729Z,35.70
2022-08-09T13:11:13.083Z,34.80
2022-08-09T13:14:42.348Z,34.50
2022-08-09T13:17:16.146Z,34.50
2022-08-09T13:20:09.067Z,35.10
2022-08-09T13:23:06.154Z,35.20
2022-08-09T13:25:54.357Z,35.20
2022-08-09T13:28:34.644Z,35.40
2022-08-09T13:32:19.940Z,35.40
2022-08-09T13:33:58.648Z,35.40
2022-08-09T13:36:41.384Z,35.30
2022-08-09T13:41:19.483Z,35.30
2022-08-09T13:42:12.281Z,35.40
2022-08-09T13:44:42.110Z,35.20
2022-08-09T13:47:33.598Z,35.10
2022-08-09T13:50:29.945Z,34.90
2022-08-09T13:52:57.906Z,34.80
2022-08-09T13:55:24.938Z,34.60
2022-08-09T13:57:59.317Z,34.00
2022-08-09T14:00:29.305Z,33.30
2022-08-09T14:03:03.366Z,32.90
2022-08-09T14:06:00.090Z,32.90
2022-08-09T14:08:31.337Z,32.80
2022-08-09T14:10:59.583Z,32.80
2022-08-09T14:14:22.923Z,33.00
2022-08-09T14:16:28.356Z,33.60
2022-08-09T14:18:57.224Z,34.00
2022-08-09T14:21:29.098Z,34.20
2022-08-09T14:23:57.595Z,34.00
2022-08-09T14:26:30.508Z,33.40
2022-08-09T14:29:07.488Z,32.90
2022-08-09T14:31:53.354Z,32.80
2022-08-09T14:34:31.815Z,32.90
2022-08-09T14:37:06.147Z,33.20
2022-08-09T14:39:40.082Z,33.40
2022-08-09T14:42:13.454Z,33.90
2022-08-09T14:47:01.154Z,33.20
2022-08-09T14:48:26.821Z,33.30
2022-08-09T14:50:53.995Z,33.30
2022-08-09T14:53:21.950Z,33.50
2022-08-09T14:55:50.629Z,33.60
2022-08-09T14:58:18.584Z,33.90
2022-08-09T15:00:48.409Z,33.70
2022-08-09T15:03:20.492Z,33.70
2022-08-09T15:06:04.030Z,33.60
2022-08-09T15:08:31.313Z,33.90
2022-08-09T15:11:01.206Z,34.10
2022-08-09T15:13:55.999Z,34.10
2022-08-09T15:16:19.820Z,33.60
2022-08-09T15:18:48.918Z,33.00
2022-08-09T15:21:55.400Z,32.70
2022-08-09T15:25:00.225Z,32.30
2022-08-09T15:27:48.005Z,32.20
2022-08-09T15:30:58.488Z,32.30
2022-08-09T15:33:09.180Z,32.70
2022-08-09T15:36:01.619Z,33.00
2022-08-09T15:39:23.147Z,33.20
2022-08-09T15:41:54.581Z,33.50
2022-08-09T15:44:46.788Z,33.70
2022-08-09T15:47:14.188Z,33.60
2022-08-09T15:50:00.673Z,33.60
2022-08-09T15:52:33.714Z,33.40
2022-08-09T15:55:01.986Z,33.20
2022-08-09T15:57:35.003Z,33.10
2022-08-09T16:00:24.309Z,33.10
2022-08-09T16:02:54.722Z,33.10
2022-08-09T16:05:26.714Z,33.00
2022-08-09T16:08:15.180Z,32.90
2022-08-09T16:10:57.318Z,32.90
2022-08-09T16:14:03.735Z,32.80
2022-08-09T16:16:17.460Z,32.80
2022-08-09T16:18:46.329Z,32.60
2022-08-09T16:21:17.486Z,32.50
2022-08-09T16:24:01.696Z,32.40
2022-08-09T16:26:35.664Z,32.20
2022-08-09T16:29:11.820Z,32.00
2022-08-09T16:32:20.020Z,32.10
2022-08-09T16:34:29.647Z,32.10
2022-08-09T16:37:16.568Z,32.10
2022-08-09T16:39:54.651Z,31.90
2022-08-09T16:42:30.483Z,31.90
2022-08-09T16:44:57.496Z,31.90
2022-08-09T16:48:38.242Z,32.00
2022-08-09T16:50:32.578Z,32.00
2022-08-09T16:53:00.004Z,31.70
2022-08-09T16:55:26.983Z,31.50
2022-08-09T16:58:10.072Z,31.50
2022-08-09T17:00:42.848Z,31.40
2022-08-09T17:03:21.875Z,31.20
2022-08-09T17:06:08.776Z,31.20
2022-08-09T17:09:03.141Z,31.00
2022-08-09T17:11:40.632Z,30.80
2022-08-09T17:14:25.512Z,30.80
2022-08-09T17:17:01.991Z,30.80
2022-08-09T17:19:46.432Z,30.80
2022-08-09T17:22:14.039Z,30.80
2022-08-09T17:24:41.454Z,30.70
2022-08-09T17:27:15.407Z,30.50
2022-08-09T17:29:45.618Z,30.30
2022-08-09T17:32:15.772Z,30.20
2022-08-09T17:35:04.173Z,30.00
2022-08-09T17:38:12.547Z,29.90
2022-08-09T17:40:26.417Z,29.70
2022-08-09T17:42:59.703Z,29.40
2022-08-09T17:46:03.255Z,29.30
2022-08-09T17:48:29.107Z,29.10
2022-08-09T17:51:06.556Z,29.00
2022-08-09T17:53:43.367Z,28.90
2022-08-09T17:56:15.157Z,28.80
2022-08-09T17:58:45.447Z,28.70
2022-08-09T18:01:15.663Z,28.60
2022-08-09T18:03:52.611Z,28.60
2022-08-09T18:06:31.698Z,28.50
2022-08-09T18:09:03.121Z,28.50
2022-08-09T18:12:05.454Z,28.40
2022-08-09T18:14:23.018Z,28.30
2022-08-09T18:16:51.077Z,28.10
2022-08-09T18:20:57.184Z,27.90
2022-08-09T18:22:16.906Z,27.80
2022-08-09T18:24:46.011Z,27.60
2022-08-09T18:27:49.277Z,27.40
2022-08-09T18:30:39.959Z,27.30
2022-08-09T18:32:54.444Z,27.20
2022-08-09T18:35:56.256Z,27.10
2022-08-09T18:38:10.201Z,26.80
2022-08-09T18:40:39.067Z,26.70
2022-08-09T18:43:06.094Z,26.50
2022-08-09T18:46:47.907Z,26.30
2022-08-09T18:48:20.405Z,26.00
2022-08-09T18:50:47.411Z,25.80
2022-08-09T18:53:16.536Z,25.50
2022-08-09T18:55:56.309Z,25.40
2022-08-09T18:58:32.420Z,25.30
2022-08-09T19:01:00.770Z,25.10
2022-08-09T19:03:28.817Z,25.00
2022-08-09T19:06:02.816Z,24.80
2022-08-09T19:08:31.292Z,24.70
2022-08-09T19:10:58.929Z,24.60
2022-08-09T19:13:38.527Z,24.40
2022-08-09T19:16:13.257Z,24.30
2022-08-09T19:18:45.782Z,24.10
2022-08-09T19:21:13.249Z,24.00
2022-08-09T19:24:32.821Z,23.90
2022-08-09T19:26:32.322Z,23.90
2022-08-09T19:29:15.309Z,23.80
2022-08-09T19:31:49.398Z,23.60
2022-08-09T19:34:22.341Z,23.60
2022-08-09T19:36:54.629Z,23.40
2022-08-09T19:39:29.353Z,23.30
2022-08-09T19:42:14.932Z,23.20
2022-08-09T19:44:50.712Z,23.00
2022-08-09T19:47:22.830Z,22.90
2022-08-09T19:50:07.061Z,22.90
2022-08-09T19:52:38.584Z,22.80
2022-08-09T19:55:19.566Z,22.60
2022-08-09T19:57:53.175Z,22.50
2022-08-09T20:00:20.311Z,22.40
2022-08-09T20:04:10.571Z,22.30
2022-08-09T20:05:46.322Z,22.20
2022-08-09T20:08:16.146Z,22.10
2022-08-09T20:10:52.432Z,22.00
2022-08-09T20:13:21.026Z,21.80
2022-08-09T20:16:33.878Z,21.80
2022-08-09T20:18:35.706Z,21.70
2022-08-09T20:21:03.147Z,21.60
2022-08-09T20:23:38.954Z,21.50
2022-08-09T20:26:08.636Z,21.40
2022-08-09T20:28:47.736Z,21.30
2022-08-09T20:31:15.362Z,21.30
2022-08-09T20:33:44.020Z,21.20
2022-08-09T20:36:11.671Z,21.10
2022-08-09T20:39:18.745Z,21.00
2022-08-09T20:41:35.421Z,20.90
2022-08-09T20:44:10.163Z,20.80
2022-08-09T20:46:43.176Z,20.70
2022-08-09T20:49:13.767Z,20.70
2022-08-09T20:51:42.080Z,20.60
2022-08-09T20:54:16.868Z,20.50
2022-08-09T20:56:46.933Z,20.40
2022-08-09T20:59:17.067Z,20.40
2022-08-09T21:01:50.575Z,20.40
2022-08-09T21:05:55.077Z,20.10
2022-08-09T21:07:11.853Z,20.30
2022-08-09T21:09:56.364Z,20.10
2022-08-09T21:15:15.653Z,20.00
2022-08-09T21:18:22.559Z,19.90
2022-08-09T21:20:31.775Z,19.90
2022-08-09T21:23:00.546Z,19.90
2022-08-09T21:25:55.996Z,19.80
2022-08-09T21:28:33.290Z,19.80
2022-08-09T21:31:18.146Z,19.70
2022-08-09T21:33:53.054Z,19.60
2022-08-09T21:36:28.852Z,19.60
2022-08-09T21:38:59.977Z,19.50
2022-08-09T21:42:03.973Z,19.50
2022-08-09T21:44:34.714Z,19.40
2022-08-09T21:47:07.730Z,19.40
2022-08-09T21:49:39.411Z,19.40
2022-08-09T21:52:14.998Z,19.30
2022-08-09T21:54:59.540Z,19.30
2022-08-09T21:57:38.495Z,19.20
2022-08-09T22:00:32.539Z,19.20
2022-08-09T22:03:04.427Z,19.00
2022-08-09T22:05:35.919Z,19.00
2022-08-09T22:08:13.761Z,19.00
2022-08-09T22:11:49.566Z,18.90
2022-08-09T22:13:34.731Z,18.80
2022-08-09T22:16:08.536Z,18.80
2022-08-09T22:18:37.815Z,18.70
2022-08-09T22:21:09.355Z,18.70
2022-08-09T22:23:58.932Z,18.60
2022-08-09T22:26:35.144Z,18.60
2022-08-09T22:29:09.295Z,18.50
2022-08-09T22:31:37.497Z,18.60
2022-08-09T22:34:14.530Z,18.40
2022-08-09T22:36:46.101Z,18.40
2022-08-09T22:39:47.153Z,18.40
2022-08-09T22:42:20.607Z,18.30
2022-08-09T22:44:49.193Z,18.20
2022-08-09T22:48:11.234Z,18.10
2022-08-09T22:50:14.201Z,18.10
2022-08-09T22:52:41.282Z,18.10
2022-08-09T22:55:08.743Z,18.00
2022-08-09T22:58:00.134Z,17.90
2022-08-09T23:00:29.256Z,17.90
2022-08-09T23:02:56.767Z,17.70
2022-08-09T23:05:25.486Z,17.80
2022-08-09T23:08:23.046Z,17.80
2022-08-09T23:10:56.419Z,17.70
2022-08-09T23:13:23.380Z,17.60
2022-08-09T23:16:03.159Z,17.50
2022-08-09T23:18:31.197Z,17.50
2022-08-09T23:20:58.160Z,17.40
2022-08-09T23:23:25.163Z,17.40
2022-08-09T23:25:52.110Z,17.30
2022-08-09T23:28:19.228Z,17.30
2022-08-09T23:30:51.667Z,17.20
2022-08-09T23:33:21.092Z,17.10
2022-08-09T23:36:05.172Z,17.20
2022-08-09T23:38:35.064Z,17.10
2022-08-09T23:41:03.094Z,17.00
2022-08-09T23:43:30.150Z,17.10
2022-08-09T23:45:57.107Z,17.00
2022-08-09T23:48:24.135Z,17.00
2022-08-09T23:50:51.092Z,16.90
2022-08-09T23:53:18.031Z,16.90
2022-08-09T23:55:45.130Z,16.80
2022-08-09T23:58:27.528Z,16.70
